Time;durP1;ratioP1;P1;durP2;ratioP2;P2;SDS_P1;SDS_P2;PMS_P1;PMS_P2;Temp;Humidity;BMP_temperature;BMP_pressure;BME280_temperature;BME280_humidity;BME280_pressure;Samples;Min_cycle;Max_cycle;Signal;HPM_P1;HPM_P2
2023/09/15 00:00:23;;;;;;;4.95;2.30;;;;;;;;;;1046181;28;20139;-65
2023/09/15 00:01:14;;;;;;;2.03;1.63;;;;;;;;;;1044999;28;20059;-64
2023/09/15 00:01:45;;;;;;;2.10;1.80;;;;;;;;;;1045743;28;20407;-64
2023/09/15 00:02:15;;;;;;;6.07;2.22;;;;;;;;;;1045364;28;20515;-66
2023/09/15 00:02:47;;;;;;;2.35;1.83;;;;;;;;;;1044452;28;20094;-66
2023/09/15 00:03:18;;;;;;;4.32;2.20;;;;;;;;;;1044994;28;20052;-65
2023/09/15 00:03:49;;;;;;;3.90;1.80;;;;;;;;;;1044265;28;20045;-64
2023/09/15 00:04:19;;;;;;;4.85;1.92;;;;;;;;;;1045235;28;20060;-64
2023/09/15 00:04:50;;;;;;;4.47;1.90;;;;;;;;;;1044544;28;20132;-66
2023/09/15 00:05:21;;;;;;;6.38;2.25;;;;;;;;;;1045227;28;20047;-65
2023/09/15 00:05:51;;;;;;;6.13;2.10;;;;;;;;;;1044989;28;20052;-64
2023/09/15 00:06:22;;;;;;;3.88;2.58;;;;;;;;;;1046155;28;20068;-65
2023/09/15 00:06:52;;;;;;;3.40;1.63;;;;;;;;;;1044050;28;20071;-65
2023/09/15 00:07:23;;;;;;;5.13;2.10;;;;;;;;;;1045589;28;20036;-65
2023/09/15 00:07:56;;;;;;;2.80;2.00;;;;;;;;;;1045421;28;20067;-64
2023/09/15 00:08:28;;;;;;;4.68;2.00;;;;;;;;;;1045019;28;20068;-64
2023/09/15 00:08:58;;;;;;;3.85;2.00;;;;;;;;;;1045132;28;20076;-66
2023/09/15 00:09:29;;;;;;;3.30;2.33;;;;;;;;;;1045157;28;20044;-65
2023/09/15 00:09:59;;;;;;;2.72;2.05;;;;;;;;;;1044547;28;20056;-65
2023/09/15 00:10:38;;;;;;;10.10;2.13;;;;;;;;;;1045827;28;20633;-64
2023/09/15 00:11:15;;;;;;;6.65;2.00;;;;;;;;;;1044628;28;20684;-65
2023/09/15 00:11:47;;;;;;;5.85;2.00;;;;;;;;;;1044129;28;20048;-64
2023/09/15 00:12:18;;;;;;;3.90;1.90;;;;;;;;;;1046268;28;20048;-66
2023/09/15 00:12:48;;;;;;;3.42;2.10;;;;;;;;;;1043665;27;20052;-64
2023/09/15 00:13:19;;;;;;;4.78;2.28;;;;;;;;;;1046216;28;20725;-66
2023/09/15 00:13:50;;;;;;;4.90;2.17;;;;;;;;;;1044294;28;20048;-65
2023/09/15 00:14:23;;;;;;;4.25;1.85;;;;;;;;;;1046151;28;20044;-66
2023/09/15 00:14:53;;;;;;;4.28;1.95;;;;;;;;;;1044285;28;20127;-65
2023/09/15 00:15:24;;;;;;;5.35;2.00;;;;;;;;;;1045362;28;20134;-65
2023/09/15 00:15:55;;;;;;;3.78;2.35;;;;;;;;;;1043379;28;20378;-65
2023/09/15 00:16:25;;;;;;;3.85;2.15;;;;;;;;;;1044630;28;20385;-66
2023/09/15 00:16:56;;;;;;;4.88;2.38;;;;;;;;;;1043202;28;20882;-64
2023/09/15 00:17:27;;;;;;;7.38;2.30;;;;;;;;;;1044848;28;20052;-65
2023/09/15 00:17:58;;;;;;;5.38;2.22;;;;;;;;;;1044593;28;20068;-65
2023/09/15 00:18:29;;;;;;;3.58;2.13;;;;;;;;;;1044601;28;20565;-64
2023/09/15 00:18:59;;;;;;;3.70;2.20;;;;;;;;;;1044163;28;20103;-66
2023/09/15 00:19:31;;;;;;;2.78;2.15;;;;;;;;;;1044919;28;20039;-66
2023/09/15 00:20:09;;;;;;;3.72;2.20;;;;;;;;;;1044696;28;20063;-66
2023/09/15 00:20:40;;;;;;;3.90;1.80;;;;;;;;;;1043633;28;20055;-64
2023/09/15 00:21:11;;;;;;;8.70;2.22;;;;;;;;;;1044805;28;20059;-65
2023/09/15 00:21:43;;;;;;;3.60;1.95;;;;;;;;;;1044480;28;20394;-64
2023/09/15 00:22:13;;;;;;;4.25;2.38;;;;;;;;;;1045068;28;20051;-66
2023/09/15 00:22:49;;;;;;;3.60;2.20;;;;;;;;;;1043752;28;20048;-66
2023/09/15 00:23:19;;;;;;;4.10;1.92;;;;;;;;;;1043393;28;20055;-64
2023/09/15 00:23:51;;;;;;;4.60;2.03;;;;;;;;;;1045389;28;20064;-66
2023/09/15 00:24:22;;;;;;;4.35;2.13;;;;;;;;;;1045398;28;20143;-65
2023/09/15 00:24:55;;;;;;;2.65;1.85;;;;;;;;;;1044425;28;20061;-65
2023/09/15 00:25:28;;;;;;;2.95;2.08;;;;;;;;;;1044275;28;20793;-64
2023/09/15 00:25:59;;;;;;;4.38;1.80;;;;;;;;;;1045453;28;20045;-66
2023/09/15 00:26:30;;;;;;;6.38;2.22;;;;;;;;;;1043709;28;20048;-66
2023/09/15 00:27:01;;;;;;;2.55;1.98;;;;;;;;;;1045963;28;20447;-64
2023/09/15 00:27:32;;;;;;;5.20;2.13;;;;;;;;;;1045000;28;20049;-66
2023/09/15 00:28:04;;;;;;;5.55;1.90;;;;;;;;;;1043342;28;20044;-66
2023/09/15 00:28:36;;;;;;;6.28;2.08;;;;;;;;;;1044848;28;20036;-65
2023/09/15 00:29:07;;;;;;;4.10;2.05;;;;;;;;;;1044858;28;20139;-65
2023/09/15 00:29:38;;;;;;;4.32;2.38;;;;;;;;;;1044448;28;20048;-64
2023/09/15 00:30:09;;;;;;;3.13;1.70;;;;;;;;;;1045707;28;20146;-64
2023/09/15 00:30:39;;;;;;;5.47;1.83;;;;;;;;;;1043997;28;20535;-64
2023/09/15 00:31:10;;;;;;;5.13;1.75;;;;;;;;;;1045233;28;20048;-65
2023/09/15 00:31:41;;;;;;;4.43;2.08;;;;;;;;;;1044951;28;20105;-65
2023/09/15 00:32:12;;;;;;;6.07;2.05;;;;;;;;;;1045734;28;20076;-64
2023/09/15 00:32:43;;;;;;;6.45;2.55;;;;;;;;;;1043994;28;20079;-64
2023/09/15 00:33:14;;;;;;;6.22;2.25;;;;;;;;;;1044420;28;20845;-65
2023/09/15 00:33:45;;;;;;;5.45;2.17;;;;;;;;;;1044682;28;20542;-65
2023/09/15 00:34:16;;;;;;;4.22;1.90;;;;;;;;;;1044527;28;20052;-66
2023/09/15 00:34:46;;;;;;;3.70;2.00;;;;;;;;;;1045412;28;20049;-65
2023/09/15 00:35:30;;;;;;;3.05;2.05;;;;;;;;;;1044699;28;20174;-65
2023/09/15 00:36:02;;;;;;;3.47;2.05;;;;;;;;;;1043989;28;20044;-65
2023/09/15 00:36:33;;;;;;;4.60;2.33;;;;;;;;;;1045903;28;20048;-64
2023/09/15 00:37:03;;;;;;;3.08;1.95;;;;;;;;;;1044576;28;20052;-64
2023/09/15 00:37:34;;;;;;;4.93;2.20;;;;;;;;;;1045599;28;20078;-65
2023/09/15 00:38:04;;;;;;;5.00;2.10;;;;;;;;;;1044926;28;20064;-65
2023/09/15 00:38:35;;;;;;;9.60;2.20;;;;;;;;;;1044626;28;20059;-66
2023/09/15 00:39:06;;;;;;;5.05;1.98;;;;;;;;;;1043848;28;20492;-65
2023/09/15 00:39:36;;;;;;;3.67;2.30;;;;;;;;;;1043824;28;20063;-65
2023/09/15 00:40:08;;;;;;;4.78;2.30;;;;;;;;;;1044775;28;20064;-65
2023/09/15 00:40:39;;;;;;;2.63;2.08;;;;;;;;;;1043680;28;20056;-66
2023/09/15 00:41:10;;;;;;;5.95;2.70;;;;;;;;;;1045705;28;20048;-64
2023/09/15 00:41:41;;;;;;;5.82;1.90;;;;;;;;;;1044054;28;20037;-65
2023/09/15 00:42:12;;;;;;;2.85;2.13;;;;;;;;;;1046421;28;20496;-66
2023/09/15 00:42:44;;;;;;;3.60;2.10;;;;;;;;;;1043661;28;20098;-65
2023/09/15 00:43:15;;;;;;;3.28;1.95;;;;;;;;;;1044702;28;20147;-64
2023/09/15 00:43:45;;;;;;;5.22;2.15;;;;;;;;;;1045743;28;20040;-64
2023/09/15 00:44:16;;;;;;;2.75;1.98;;;;;;;;;;1045936;28;20127;-64
2023/09/15 00:44:47;;;;;;;3.97;2.20;;;;;;;;;;1044014;28;20048;-66
2023/09/15 00:45:22;;;;;;;2.85;1.98;;;;;;;;;;1045317;28;20060;-65
2023/09/15 00:45:52;;;;;;;5.95;2.00;;;;;;;;;;1044425;28;20072;-65
2023/09/15 00:46:23;;;;;;;3.70;1.70;;;;;;;;;;1044837;28;20055;-64
2023/09/15 00:46:54;;;;;;;2.83;1.98;;;;;;;;;;1044898;28;20048;-65
2023/09/15 00:47:24;;;;;;;4.63;2.28;;;;;;;;;;1045918;28;20048;-66
2023/09/15 00:47:56;;;;;;;2.33;1.90;;;;;;;;;;1045404;28;20056;-65
2023/09/15 00:48:27;;;;;;;4.85;2.22;;;;;;;;;;1045248;28;20130;-65
2023/09/15 00:48:58;;;;;;;3.90;2.30;;;;;;;;;;1045521;28;20044;-64
2023/09/15 00:49:29;;;;;;;4.95;2.25;;;;;;;;;;1044419;28;20052;-64
2023/09/15 00:50:02;;;;;;;3.70;1.92;;;;;;;;;;1043499;28;20052;-66
2023/09/15 00:50:33;;;;;;;5.07;2.13;;;;;;;;;;1044245;28;22192;-65
2023/09/15 00:51:06;;;;;;;2.60;1.90;;;;;;;;;;1045797;28;20052;-65
2023/09/15 00:51:37;;;;;;;5.07;2.17;;;;;;;;;;1042790;28;20159;-65
2023/09/15 00:52:08;;;;;;;3.45;2.35;;;;;;;;;;1045652;28;20063;-64
2023/09/15 00:52:39;;;;;;;4.07;2.13;;;;;;;;;;1043140;28;20233;-65
2023/09/15 00:53:13;;;;;;;3.67;2.25;;;;;;;;;;1046382;28;20110;-65
2023/09/15 00:53:45;;;;;;;3.78;2.08;;;;;;;;;;1043685;28;20052;-64
2023/09/15 00:54:16;;;;;;;6.05;1.90;;;;;;;;;;1046093;28;20036;-65
2023/09/15 00:54:47;;;;;;;5.70;2.17;;;;;;;;;;1043918;28;20055;-65
2023/09/15 00:55:21;;;;;;;3.97;2.45;;;;;;;;;;1044601;28;20493;-64
2023/09/15 00:55:52;;;;;;;2.85;1.95;;;;;;;;;;1044264;28;20374;-64
2023/09/15 00:56:23;;;;;;;3.33;2.15;;;;;;;;;;1044946;28;20817;-64
2023/09/15 00:56:53;;;;;;;3.22;2.10;;;;;;;;;;1044195;28;20048;-65
2023/09/15 00:57:25;;;;;;;3.10;2.35;;;;;;;;;;1044915;28;20405;-67
2023/09/15 00:57:56;;;;;;;5.22;2.50;;;;;;;;;;1044593;28;20496;-64
2023/09/15 00:58:28;;;;;;;6.05;2.08;;;;;;;;;;1045351;28;20059;-66
2023/09/15 00:59:00;;;;;;;4.30;2.33;;;;;;;;;;1043902;28;20052;-65
2023/09/15 00:59:32;;;;;;;6.13;2.22;;;;;;;;;;1044303;28;20060;-64
2023/09/15 01:00:05;;;;;;;3.97;2.00;;;;;;;;;;1044722;28;20119;-65
2023/09/15 01:00:37;;;;;;;4.07;2.25;;;;;;;;;;1045658;28;20395;-64
2023/09/15 01:01:08;;;;;;;3.50;2.10;;;;;;;;;;1044368;28;20060;-65
2023/09/15 01:01:40;;;;;;;3.67;2.30;;;;;;;;;;1044764;28;20052;-66
2023/09/15 01:02:12;;;;;;;4.00;2.30;;;;;;;;;;1044423;28;20707;-64
2023/09/15 01:02:44;;;;;;;4.38;2.75;;;;;;;;;;1042817;28;20040;-66
2023/09/15 01:03:18;;;;;;;4.00;2.20;;;;;;;;;;1043955;28;20059;-65
2023/09/15 01:03:49;;;;;;;4.10;2.20;;;;;;;;;;1044275;28;20053;-65
2023/09/15 01:04:20;;;;;;;4.65;2.65;;;;;;;;;;1044830;28;20098;-65
2023/09/15 01:04:51;;;;;;;4.10;3.00;;;;;;;;;;1043763;28;20056;-64
2023/09/15 01:05:24;;;;;;;4.72;2.90;;;;;;;;;;1043530;28;20056;-64
2023/09/15 01:05:55;;;;;;;8.80;3.35;;;;;;;;;;1045543;28;20508;-65
2023/09/15 01:06:26;;;;;;;7.47;4.78;;;;;;;;;;1044030;28;20056;-64
2023/09/15 01:06:57;;;;;;;8.57;5.80;;;;;;;;;;1045175;28;20044;-66
2023/09/15 01:07:29;;;;;;;7.97;5.47;;;;;;;;;;1044070;28;20090;-65
2023/09/15 01:07:59;;;;;;;11.40;5.88;;;;;;;;;;1045171;28;20044;-65
2023/09/15 01:08:30;;;;;;;9.10;6.25;;;;;;;;;;1045458;28;20048;-65
2023/09/15 01:09:00;;;;;;;8.45;5.68;;;;;;;;;;1044054;28;20067;-64
2023/09/15 01:09:31;;;;;;;10.30;6.90;;;;;;;;;;1045131;28;20131;-65
2023/09/15 01:10:04;;;;;;;7.20;5.13;;;;;;;;;;1044272;28;20072;-64
2023/09/15 01:10:35;;;;;;;7.28;5.55;;;;;;;;;;1043738;28;20124;-64
2023/09/15 01:11:06;;;;;;;8.93;5.78;;;;;;;;;;1045005;28;20484;-66
2023/09/15 01:11:36;;;;;;;9.23;6.22;;;;;;;;;;1045899;28;20512;-65
2023/09/15 01:12:07;;;;;;;7.60;5.97;;;;;;;;;;1044983;28;20063;-64
2023/09/15 01:12:39;;;;;;;14.32;6.28;;;;;;;;;;1044547;28;20144;-65
2023/09/15 01:13:10;;;;;;;10.57;7.00;;;;;;;;;;1044541;28;20079;-65
2023/09/15 01:13:41;;;;;;;13.13;7.78;;;;;;;;;;1043691;28;20409;-66
2023/09/15 01:14:12;;;;;;;9.88;6.90;;;;;;;;;;1044405;28;20773;-65
2023/09/15 01:14:42;;;;;;;12.65;6.90;;;;;;;;;;1042664;28;20061;-65
2023/09/15 01:15:14;;;;;;;11.75;6.53;;;;;;;;;;1043642;28;20052;-64
2023/09/15 01:15:49;;;;;;;10.30;6.47;;;;;;;;;;1044540;28;20040;-66
2023/09/15 01:17:06;;;;;;;11.82;6.28;;;;;;;;;;1044577;28;20090;-64
2023/09/15 01:17:55;;;;;;;8.93;5.63;;;;;;;;;;1040325;28;20072;-64
2023/09/15 01:18:54;;;;;;;7.97;6.32;;;;;;;;;;1045692;28;20044;-65
2023/09/15 01:19:36;;;;;;;6.30;4.63;;;;;;;;;;1039556;28;20533;-64
2023/09/15 01:20:13;;;;;;;7.45;4.70;;;;;;;;;;1040790;28;20069;-64
2023/09/15 01:20:47;;;;;;;8.20;5.13;;;;;;;;;;1041815;28;20732;-64
2023/09/15 01:21:24;;;;;;;7.28;4.78;;;;;;;;;;1044261;28;20049;-64
2023/09/15 01:22:23;;;;;;;9.57;4.90;;;;;;;;;;1043469;28;20587;-65
2023/09/15 01:23:15;;;;;;;6.78;4.45;;;;;;;;;;1042167;28;20052;-64
2023/09/15 01:24:17;;;;;;;10.13;4.60;;;;;;;;;;1045002;28;20056;-64
2023/09/15 01:25:15;;;;;;;10.63;4.40;;;;;;;;;;1044265;28;20749;-65
2023/09/15 01:26:27;;;;;;;6.47;3.90;;;;;;;;;;1044285;28;20045;-65
2023/09/15 01:27:39;;;;;;;7.05;4.28;;;;;;;;;;1045399;28;20117;-65
2023/09/15 01:28:28;;;;;;;7.35;4.40;;;;;;;;;;1044151;28;20064;-65
2023/09/15 01:29:10;;;;;;;7.63;4.00;;;;;;;;;;1042058;28;20052;-66
2023/09/15 01:29:54;;;;;;;6.00;3.70;;;;;;;;;;1043445;28;20579;-65
2023/09/15 01:30:25;;;;;;;9.18;4.05;;;;;;;;;;1044943;28;20048;-65
2023/09/15 01:30:55;;;;;;;11.05;3.70;;;;;;;;;;1043893;28;20093;-66
2023/09/15 01:31:26;;;;;;;8.57;4.00;;;;;;;;;;1045400;28;20053;-65
2023/09/15 01:32:00;;;;;;;6.47;3.88;;;;;;;;;;1042612;28;20202;-64
2023/09/15 01:32:33;;;;;;;11.35;3.75;;;;;;;;;;1045446;28;20143;-64
2023/09/15 01:33:05;;;;;;;6.43;4.18;;;;;;;;;;1044632;28;20044;-66
2023/09/15 01:33:37;;;;;;;6.32;3.60;;;;;;;;;;1046024;28;20049;-65
2023/09/15 01:34:07;;;;;;;8.35;4.55;;;;;;;;;;1043792;28;20159;-66
2023/09/15 01:34:45;;;;;;;8.50;4.10;;;;;;;;;;1045190;28;20087;-65
2023/09/15 01:35:15;;;;;;;10.27;3.90;;;;;;;;;;1043315;28;20055;-65
2023/09/15 01:35:46;;;;;;;5.95;3.63;;;;;;;;;;1044953;28;20048;-65
2023/09/15 01:36:16;;;;;;;8.05;3.83;;;;;;;;;;1044363;28;20377;-66
2023/09/15 01:36:47;;;;;;;5.95;3.40;;;;;;;;;;1045912;28;20028;-66
2023/09/15 01:37:19;;;;;;;8.70;3.75;;;;;;;;;;1043057;28;20063;-64
2023/09/15 01:37:49;;;;;;;5.97;2.92;;;;;;;;;;1043677;28;20051;-64
2023/09/15 01:38:20;;;;;;;7.05;3.00;;;;;;;;;;1044361;28;20048;-64
2023/09/15 01:38:51;;;;;;;10.13;3.35;;;;;;;;;;1045771;28;20117;-65
2023/09/15 01:39:21;;;;;;;6.03;3.40;;;;;;;;;;1042632;28;20914;-65
2023/09/15 01:39:52;;;;;;;7.28;3.35;;;;;;;;;;1044599;28;20052;-64
2023/09/15 01:40:23;;;;;;;9.45;3.33;;;;;;;;;;1046337;28;20059;-64
2023/09/15 01:40:53;;;;;;;7.80;3.38;;;;;;;;;;1043146;28;20109;-65
2023/09/15 01:41:24;;;;;;;5.57;2.95;;;;;;;;;;1042857;28;20160;-66
2023/09/15 01:41:54;;;;;;;7.53;3.05;;;;;;;;;;1044145;28;20060;-66
2023/09/15 01:42:26;;;;;;;4.25;2.80;;;;;;;;;;1045202;28;20045;-64
2023/09/15 01:42:57;;;;;;;6.07;2.60;;;;;;;;;;1044663;28;20444;-66
2023/09/15 01:43:27;;;;;;;9.70;3.05;;;;;;;;;;1045879;28;20370;-66
2023/09/15 01:43:58;;;;;;;5.15;2.50;;;;;;;;;;1044236;28;20618;-66
2023/09/15 01:44:29;;;;;;;8.98;2.92;;;;;;;;;;1046036;28;20055;-64
2023/09/15 01:44:59;;;;;;;4.55;2.50;;;;;;;;;;1043362;28;20048;-66
2023/09/15 01:45:30;;;;;;;4.47;2.95;;;;;;;;;;1045544;28;20045;-65
2023/09/15 01:46:00;;;;;;;10.18;2.80;;;;;;;;;;1045133;28;20049;-65
2023/09/15 01:46:31;;;;;;;9.50;3.20;;;;;;;;;;1045071;28;20052;-65
2023/09/15 01:47:02;;;;;;;8.00;3.15;;;;;;;;;;1044198;28;20044;-65
2023/09/15 01:47:33;;;;;;;4.20;2.65;;;;;;;;;;1045184;28;20086;-64
2023/09/15 01:48:05;;;;;;;7.55;2.85;;;;;;;;;;1045522;28;20048;-65
2023/09/15 01:48:36;;;;;;;5.90;2.70;;;;;;;;;;1044974;28;20053;-65
2023/09/15 01:49:08;;;;;;;5.57;3.17;;;;;;;;;;1045236;28;20087;-65
2023/09/15 01:49:39;;;;;;;3.65;2.55;;;;;;;;;;1043053;28;20048;-65
2023/09/15 01:50:11;;;;;;;8.02;3.22;;;;;;;;;;1042809;28;20069;-65
2023/09/15 01:50:42;;;;;;;8.00;2.92;;;;;;;;;;1043879;28;20182;-64
2023/09/15 01:51:13;;;;;;;4.70;2.90;;;;;;;;;;1044503;28;20044;-66
2023/09/15 01:51:44;;;;;;;6.47;3.08;;;;;;;;;;1041896;28;20052;-64
2023/09/15 01:52:14;;;;;;;9.20;2.90;;;;;;;;;;1045935;28;20188;-66
2023/09/15 01:52:45;;;;;;;10.45;3.05;;;;;;;;;;1044919;28;20059;-64
2023/09/15 01:53:16;;;;;;;7.55;2.92;;;;;;;;;;1045121;28;20186;-64
2023/09/15 01:53:47;;;;;;;7.57;2.65;;;;;;;;;;1044822;28;20041;-64
2023/09/15 01:54:18;;;;;;;4.07;2.47;;;;;;;;;;1046066;28;20090;-64
2023/09/15 01:54:51;;;;;;;6.07;2.88;;;;;;;;;;1043999;28;20052;-65
2023/09/15 01:55:24;;;;;;;6.10;2.95;;;;;;;;;;1045392;28;20039;-64
2023/09/15 01:55:54;;;;;;;4.15;2.60;;;;;;;;;;1044064;28;21650;-65
2023/09/15 01:56:28;;;;;;;11.45;2.92;;;;;;;;;;1045120;28;20044;-63
2023/09/15 01:56:59;;;;;;;5.93;3.42;;;;;;;;;;1043735;28;20121;-64
2023/09/15 01:57:29;;;;;;;7.72;3.03;;;;;;;;;;1046158;28;20143;-65
2023/09/15 01:58:00;;;;;;;3.97;2.38;;;;;;;;;;1043993;28;20047;-65
2023/09/15 01:58:30;;;;;;;5.75;2.92;;;;;;;;;;1045312;28;20052;-65
2023/09/15 01:59:01;;;;;;;5.57;2.78;;;;;;;;;;1045055;28;20492;-66
2023/09/15 01:59:32;;;;;;;4.72;2.90;;;;;;;;;;1043178;28;20083;-65
2023/09/15 02:00:04;;;;;;;5.95;2.35;;;;;;;;;;1043829;28;20576;-65
2023/09/15 02:00:36;;;;;;;6.35;2.50;;;;;;;;;;1043068;28;20056;-65
2023/09/15 02:01:07;;;;;;;3.90;2.80;;;;;;;;;;1045235;28;20065;-65
2023/09/15 02:01:37;;;;;;;4.05;2.40;;;;;;;;;;1043761;28;20064;-64
2023/09/15 02:02:08;;;;;;;3.83;2.42;;;;;;;;;;1043310;28;20782;-65
2023/09/15 02:02:38;;;;;;;5.32;2.33;;;;;;;;;;1044748;28;20143;-64
2023/09/15 02:03:09;;;;;;;4.95;2.80;;;;;;;;;;1046012;28;20053;-66
2023/09/15 02:03:40;;;;;;;5.88;2.33;;;;;;;;;;1044265;28;20129;-65
2023/09/15 02:04:10;;;;;;;6.95;2.72;;;;;;;;;;1046030;28;20237;-64
2023/09/15 02:04:41;;;;;;;5.13;3.03;;;;;;;;;;1045152;28;20052;-64
2023/09/15 02:05:22;;;;;;;4.05;2.33;;;;;;;;;;1044222;28;20060;-66
2023/09/15 02:05:52;;;;;;;2.50;2.13;;;;;;;;;;1045033;28;20098;-66
2023/09/15 02:06:23;;;;;;;8.15;2.67;;;;;;;;;;1044684;28;20110;-65
2023/09/15 02:06:53;;;;;;;3.03;2.30;;;;;;;;;;1043719;28;20877;-64
2023/09/15 02:07:24;;;;;;;6.35;2.60;;;;;;;;;;1045788;28;20049;-66
2023/09/15 02:07:55;;;;;;;4.47;2.50;;;;;;;;;;1043376;28;20056;-64
2023/09/15 02:08:25;;;;;;;5.35;2.70;;;;;;;;;;1044298;28;20698;-65
2023/09/15 02:08:56;;;;;;;3.28;2.40;;;;;;;;;;1045492;28;20820;-65
2023/09/15 02:09:27;;;;;;;3.58;2.25;;;;;;;;;;1043880;28;20105;-65
2023/09/15 02:09:57;;;;;;;4.45;2.42;;;;;;;;;;1045001;28;20131;-64
2023/09/15 02:10:28;;;;;;;4.68;2.53;;;;;;;;;;1044622;28;20166;-64
2023/09/15 02:10:59;;;;;;;3.38;2.28;;;;;;;;;;1045267;28;20478;-64
2023/09/15 02:11:29;;;;;;;9.20;2.70;;;;;;;;;;1043810;28;20660;-65
2023/09/15 02:12:00;;;;;;;6.10;2.28;;;;;;;;;;1044564;28;20044;-65
2023/09/15 02:12:31;;;;;;;6.68;2.50;;;;;;;;;;1045368;28;20056;-65
2023/09/15 02:13:02;;;;;;;4.47;2.47;;;;;;;;;;1044827;28;20055;-66
2023/09/15 02:13:35;;;;;;;6.07;2.72;;;;;;;;;;1045546;28;20051;-66
2023/09/15 02:14:06;;;;;;;3.63;2.42;;;;;;;;;;1043710;28;20566;-65
2023/09/15 02:14:37;;;;;;;5.10;2.38;;;;;;;;;;1043342;28;20485;-65
2023/09/15 02:15:08;;;;;;;5.45;2.25;;;;;;;;;;1045155;28;20483;-65
2023/09/15 02:15:40;;;;;;;5.78;2.20;;;;;;;;;;1042774;28;20049;-65
2023/09/15 02:16:13;;;;;;;3.28;2.20;;;;;;;;;;1045706;28;20056;-65
2023/09/15 02:16:44;;;;;;;4.43;2.03;;;;;;;;;;1044646;28;20144;-65
2023/09/15 02:17:15;;;;;;;3.50;2.13;;;;;;;;;;1043888;28;20059;-65
2023/09/15 02:17:47;;;;;;;4.95;2.30;;;;;;;;;;1045407;28;20047;-65
2023/09/15 02:18:18;;;;;;;7.00;2.17;;;;;;;;;;1045734;28;20500;-64
2023/09/15 02:18:49;;;;;;;5.40;2.25;;;;;;;;;;1044756;28;20420;-65
2023/09/15 02:19:19;;;;;;;4.75;2.17;;;;;;;;;;1044935;28;20692;-65
2023/09/15 02:19:50;;;;;;;3.50;2.10;;;;;;;;;;1045457;28;20048;-64
2023/09/15 02:20:22;;;;;;;7.95;2.72;;;;;;;;;;1043834;28;20053;-64
2023/09/15 02:20:56;;;;;;;5.07;2.50;;;;;;;;;;1044459;28;20056;-64
2023/09/15 02:21:27;;;;;;;6.25;2.17;;;;;;;;;;1042865;28;20105;-65
2023/09/15 02:21:58;;;;;;;6.35;2.58;;;;;;;;;;1044769;28;20125;-65
2023/09/15 02:22:28;;;;;;;7.22;2.33;;;;;;;;;;1044972;28;20416;-66
2023/09/15 02:23:03;;;;;;;4.47;2.50;;;;;;;;;;1043924;28;20503;-65
2023/09/15 02:23:34;;;;;;;2.80;2.10;;;;;;;;;;1043132;28;20163;-64
2023/09/15 02:24:05;;;;;;;6.30;2.55;;;;;;;;;;1045016;28;20048;-65
2023/09/15 02:24:35;;;;;;;5.70;2.78;;;;;;;;;;1046436;28;20052;-65
2023/09/15 02:25:06;;;;;;;5.35;2.25;;;;;;;;;;1044235;28;20075;-64
2023/09/15 02:25:37;;;;;;;15.23;3.10;;;;;;;;;;1044600;28;20146;-64
2023/09/15 02:26:08;;;;;;;6.70;2.65;;;;;;;;;;1044984;28;20153;-65
2023/09/15 02:26:39;;;;;;;6.95;2.25;;;;;;;;;;1045538;28;20049;-65
2023/09/15 02:27:10;;;;;;;5.07;2.50;;;;;;;;;;1044624;28;20049;-64
2023/09/15 02:27:40;;;;;;;3.97;2.20;;;;;;;;;;1046540;28;20049;-66
2023/09/15 02:28:11;;;;;;;5.90;2.35;;;;;;;;;;1045124;28;21258;-65
2023/09/15 02:28:42;;;;;;;9.65;2.72;;;;;;;;;;1046593;28;20044;-64
2023/09/15 02:29:13;;;;;;;3.90;2.55;;;;;;;;;;1045405;28;20052;-64
2023/09/15 02:29:43;;;;;;;3.10;2.30;;;;;;;;;;1045087;28;20171;-65
2023/09/15 02:30:14;;;;;;;6.75;2.60;;;;;;;;;;1045347;28;20044;-64
2023/09/15 02:30:45;;;;;;;4.05;2.40;;;;;;;;;;1045565;28;20048;-64
2023/09/15 02:31:16;;;;;;;3.17;2.22;;;;;;;;;;1045408;28;20127;-65
2023/09/15 02:31:47;;;;;;;3.70;2.20;;;;;;;;;;1046345;28;20048;-65
2023/09/15 02:32:18;;;;;;;5.75;2.10;;;;;;;;;;1044870;28;20045;-64
2023/09/15 02:32:49;;;;;;;2.67;1.90;;;;;;;;;;1044789;28;20040;-63
2023/09/15 02:33:19;;;;;;;4.32;2.40;;;;;;;;;;1045395;28;20044;-65
2023/09/15 02:33:50;;;;;;;4.30;2.40;;;;;;;;;;1045459;28;20048;-66
2023/09/15 02:34:21;;;;;;;4.10;2.85;;;;;;;;;;1046556;28;20067;-64
2023/09/15 02:34:51;;;;;;;4.82;2.17;;;;;;;;;;1045760;28;20143;-65
2023/09/15 02:35:22;;;;;;;4.45;1.95;;;;;;;;;;1045435;28;20068;-64
2023/09/15 02:35:52;;;;;;;2.10;1.90;;;;;;;;;;1042956;28;20048;-65
2023/09/15 02:36:24;;;;;;;8.60;2.33;;;;;;;;;;1045983;28;20134;-64
2023/09/15 02:36:54;;;;;;;5.88;2.22;;;;;;;;;;1043679;28;20173;-65
2023/09/15 02:37:25;;;;;;;6.10;2.28;;;;;;;;;;1046818;28;20048;-64
2023/09/15 02:37:55;;;;;;;5.38;2.30;;;;;;;;;;1043725;28;20476;-66
2023/09/15 02:38:26;;;;;;;3.05;2.40;;;;;;;;;;1045276;28;20102;-65
2023/09/15 02:38:57;;;;;;;3.83;2.15;;;;;;;;;;1043872;28;20055;-66
2023/09/15 02:39:27;;;;;;;4.57;2.60;;;;;;;;;;1044889;28;20052;-65
2023/09/15 02:39:57;;;;;;;7.95;2.45;;;;;;;;;;1045181;28;20048;-65
2023/09/15 02:40:28;;;;;;;5.30;2.47;;;;;;;;;;1045964;28;20918;-65
2023/09/15 02:40:58;;;;;;;3.83;2.20;;;;;;;;;;1045501;28;20083;-64
2023/09/15 02:41:29;;;;;;;4.43;2.88;;;;;;;;;;1045560;28;20063;-65
2023/09/15 02:42:00;;;;;;;4.30;2.92;;;;;;;;;;1043002;28;20060;-65
2023/09/15 02:42:30;;;;;;;4.35;2.38;;;;;;;;;;1044530;28;20064;-65
2023/09/15 02:43:01;;;;;;;10.05;2.67;;;;;;;;;;1044946;28;20464;-65
2023/09/15 02:43:31;;;;;;;7.15;2.55;;;;;;;;;;1045990;28;20495;-66
2023/09/15 02:44:02;;;;;;;5.65;2.70;;;;;;;;;;1044129;28;20056;-65
2023/09/15 02:44:32;;;;;;;7.30;2.47;;;;;;;;;;1045140;28;20408;-65
2023/09/15 02:45:03;;;;;;;2.80;2.25;;;;;;;;;;1044861;28;20059;-65
2023/09/15 02:45:35;;;;;;;4.57;2.50;;;;;;;;;;1045701;28;20054;-64
2023/09/15 02:46:06;;;;;;;3.78;2.70;;;;;;;;;;1045837;28;20033;-65
2023/09/15 02:46:37;;;;;;;3.03;2.30;;;;;;;;;;1045906;28;20091;-66
2023/09/15 02:47:08;;;;;;;6.32;2.92;;;;;;;;;;1043944;28;20492;-65
2023/09/15 02:47:38;;;;;;;4.85;2.67;;;;;;;;;;1044983;28;20053;-65
2023/09/15 02:48:09;;;;;;;4.90;2.60;;;;;;;;;;1046258;28;20060;-65
2023/09/15 02:48:42;;;;;;;3.97;2.33;;;;;;;;;;1044438;28;20143;-65
2023/09/15 02:49:12;;;;;;;3.10;2.30;;;;;;;;;;1045747;28;20397;-66
2023/09/15 02:49:44;;;;;;;2.90;2.30;;;;;;;;;;1045318;28;20385;-63
2023/09/15 02:50:15;;;;;;;6.40;2.53;;;;;;;;;;1045934;28;20048;-64
2023/09/15 02:50:45;;;;;;;4.03;2.42;;;;;;;;;;1044873;28;20048;-66
2023/09/15 02:51:16;;;;;;;5.80;2.42;;;;;;;;;;1046267;28;20061;-64
2023/09/15 02:51:46;;;;;;;7.45;2.30;;;;;;;;;;1045316;28;20147;-65
2023/09/15 02:52:17;;;;;;;4.53;2.10;;;;;;;;;;1045865;28;20059;-65
2023/09/15 02:52:48;;;;;;;3.92;2.30;;;;;;;;;;1045419;28;20055;-64
2023/09/15 02:53:18;;;;;;;5.25;2.53;;;;;;;;;;1045747;28;20052;-66
2023/09/15 02:53:49;;;;;;;4.72;2.28;;;;;;;;;;1045086;28;20863;-64
2023/09/15 02:54:20;;;;;;;3.65;2.28;;;;;;;;;;1045577;28;20045;-65
2023/09/15 02:54:50;;;;;;;3.47;2.15;;;;;;;;;;1045925;28;20483;-66
2023/09/15 02:55:21;;;;;;;4.45;2.38;;;;;;;;;;1045964;28;20060;-64
2023/09/15 02:55:58;;;;;;;8.57;3.30;;;;;;;;;;1046067;28;20083;-66
2023/09/15 02:56:29;;;;;;;5.30;2.53;;;;;;;;;;1043694;28;20069;-65
2023/09/15 02:56:59;;;;;;;5.22;2.25;;;;;;;;;;1043864;28;20443;-64
2023/09/15 02:57:30;;;;;;;6.70;2.75;;;;;;;;;;1046123;28;21477;-68
2023/09/15 02:58:00;;;;;;;4.72;2.60;;;;;;;;;;1046065;28;20558;-66
2023/09/15 02:58:32;;;;;;;6.20;2.45;;;;;;;;;;1046029;28;20049;-65
2023/09/15 02:59:02;;;;;;;8.90;2.40;;;;;;;;;;1045881;28;20072;-64
2023/09/15 02:59:33;;;;;;;3.08;2.20;;;;;;;;;;1045201;28;20097;-66
2023/09/15 03:00:07;;;;;;;7.35;2.30;;;;;;;;;;1044011;28;21081;-65
2023/09/15 03:00:38;;;;;;;2.92;2.30;;;;;;;;;;1045642;28;20048;-63
2023/09/15 03:01:13;;;;;;;6.45;2.47;;;;;;;;;;1046285;28;20059;-66
2023/09/15 03:01:44;;;;;;;3.53;2.28;;;;;;;;;;1045735;28;20500;-64
2023/09/15 03:02:15;;;;;;;4.10;2.30;;;;;;;;;;1044037;28;20769;-65
2023/09/15 03:02:47;;;;;;;5.80;2.35;;;;;;;;;;1044991;28;20075;-66
2023/09/15 03:03:17;;;;;;;5.32;2.72;;;;;;;;;;1045629;28;20067;-66
2023/09/15 03:03:49;;;;;;;6.68;2.28;;;;;;;;;;1045806;28;20044;-64
2023/09/15 03:04:19;;;;;;;4.95;2.80;;;;;;;;;;1045714;28;20052;-64
2023/09/15 03:04:50;;;;;;;3.17;2.28;;;;;;;;;;1045959;28;20040;-66
2023/09/15 03:05:20;;;;;;;4.00;2.58;;;;;;;;;;1045143;28;20158;-65
2023/09/15 03:06:05;;;;;;;4.15;2.45;;;;;;;;;;1044864;28;20035;-66
2023/09/15 03:06:35;;;;;;;4.50;2.17;;;;;;;;;;1045296;28;20848;-64
2023/09/15 03:07:06;;;;;;;3.53;2.47;;;;;;;;;;1044766;28;20059;-64
2023/09/15 03:07:39;;;;;;;4.25;2.40;;;;;;;;;;1045967;28;20137;-64
2023/09/15 03:08:10;;;;;;;3.67;2.58;;;;;;;;;;1046351;28;20053;-65
2023/09/15 03:08:41;;;;;;;5.05;2.60;;;;;;;;;;1045564;28;20041;-64
2023/09/15 03:09:12;;;;;;;7.28;2.47;;;;;;;;;;1044218;28;20052;-66
2023/09/15 03:09:43;;;;;;;3.42;2.30;;;;;;;;;;1044154;28;20131;-65
2023/09/15 03:10:13;;;;;;;3.45;2.63;;;;;;;;;;1045729;28;20055;-65
2023/09/15 03:10:45;;;;;;;6.55;2.65;;;;;;;;;;1044465;28;20055;-64
2023/09/15 03:11:19;;;;;;;4.22;2.75;;;;;;;;;;1045521;28;20052;-67
2023/09/15 03:11:49;;;;;;;4.45;2.30;;;;;;;;;;1043995;28;20831;-66
2023/09/15 03:12:20;;;;;;;4.03;2.72;;;;;;;;;;1045240;28;20629;-65
2023/09/15 03:12:51;;;;;;;6.00;3.03;;;;;;;;;;1045128;28;20102;-65
2023/09/15 03:13:22;;;;;;;7.10;2.60;;;;;;;;;;1045433;28;20078;-65
2023/09/15 03:13:52;;;;;;;3.75;2.58;;;;;;;;;;1043862;28;20079;-64